sensor_id;sensor_type;location;lat;lon;timestamp;temperature;humidity
32366;DHT22;18837;46.832;16.838;2022-11-15T00:35:47;9.70;95.80
32366;DHT22;18837;46.832;16.838;2022-11-15T00:38:34;9.60;94.00
32366;DHT22;18837;46.832;16.838;2022-11-15T00:41:52;9.60;95.70
32366;DHT22;18837;46.832;16.838;2022-11-15T05:45:51;9.60;95.60
32366;DHT22;18837;46.832;16.838;2022-11-15T05:48:23;9.60;93.80
32366;DHT22;18837;46.832;16.838;2022-11-15T05:50:52;9.60;95.60
32366;DHT22;18837;46.832;16.838;2022-11-15T05:56:37;9.60;95.80
32366;DHT22;18837;46.832;16.838;2022-11-15T06:06:49;9.50;95.50
32366;DHT22;18837;46.832;16.838;2022-11-15T06:15:50;9.50;95.70
32366;DHT22;18837;46.832;16.838;2022-11-15T07:31:06;9.60;96.00
32366;DHT22;18837;46.832;16.838;2022-11-15T07:33:33;9.70;95.90
32366;DHT22;18837;46.832;16.838;2022-11-15T07:36:07;9.70;94.60
32366;DHT22;18837;46.832;16.838;2022-11-15T08:05:13;9.60;96.00
32366;DHT22;18837;46.832;16.838;2022-11-15T08:14:23;9.60;96.00
32366;DHT22;18837;46.832;16.838;2022-11-15T08:35:39;9.80;95.50
32366;DHT22;18837;46.832;16.838;2022-11-15T08:38:05;9.80;94.30
32366;DHT22;18837;46.832;16.838;2022-11-15T08:51:19;9.80;95.50
32366;DHT22;18837;46.832;16.838;2022-11-15T08:53:45;9.70;94.40
32366;DHT22;18837;46.832;16.838;2022-11-15T08:56:13;9.70;94.50
32366;DHT22;18837;46.832;16.838;2022-11-15T08:58:39;9.70;94.10
32366;DHT22;18837;46.832;16.838;2022-11-15T09:01:05;9.70;94.50
32366;DHT22;18837;46.832;16.838;2022-11-15T09:03:56;9.70;94.10
32366;DHT22;18837;46.832;16.838;2022-11-15T09:06:47;9.70;95.90
32366;DHT22;18837;46.832;16.838;2022-11-15T09:12:21;9.40;95.50
32366;DHT22;18837;46.832;16.838;2022-11-15T09:14:54;9.70;94.30
32366;DHT22;18837;46.832;16.838;2022-11-15T09:21:14;9.80;95.90
32366;DHT22;18837;46.832;16.838;2022-11-15T09:24:09;9.90;95.80
32366;DHT22;18837;46.832;16.838;2022-11-15T09:26:56;10.50;95.70
32366;DHT22;18837;46.832;16.838;2022-11-15T09:29:24;10.40;95.50
32366;DHT22;18837;46.832;16.838;2022-11-15T09:31:53;9.90;94.10
32366;DHT22;18837;46.832;16.838;2022-11-15T09:34:27;9.90;94.00
32366;DHT22;18837;46.832;16.838;2022-11-15T09:37:12;10.00;94.00
32366;DHT22;18837;46.832;16.838;2022-11-15T09:42:48;10.30;94.40
32366;DHT22;18837;46.832;16.838;2022-11-15T09:58:26;9.90;95.00
32366;DHT22;18837;46.832;16.838;2022-11-15T10:01:54;9.80;94.10
32366;DHT22;18837;46.832;16.838;2022-11-15T10:04:09;9.80;95.00
32366;DHT22;18837;46.832;16.838;2022-11-15T10:09:43;9.90;94.40
32366;DHT22;18837;46.832;16.838;2022-11-15T10:12:34;10.00;94.20
32366;DHT22;18837;46.832;16.838;2022-11-15T10:15:17;10.00;95.30
32366;DHT22;18837;46.832;16.838;2022-11-15T10:18:25;10.70;95.60
32366;DHT22;18837;46.832;16.838;2022-11-15T10:22:04;10.20;94.40
32366;DHT22;18837;46.832;16.838;2022-11-15T10:24:18;10.60;95.10
32366;DHT22;18837;46.832;16.838;2022-11-15T10:30:45;10.10;95.10
32366;DHT22;18837;46.832;16.838;2022-11-15T10:33:35;10.10;95.00
32366;DHT22;18837;46.832;16.838;2022-11-15T10:43:41;10.00;94.30
32366;DHT22;18837;46.832;16.838;2022-11-15T10:46:35;10.00;94.40
32366;DHT22;18837;46.832;16.838;2022-11-15T10:49:28;10.00;95.10
32366;DHT22;18837;46.832;16.838;2022-11-15T10:52:34;10.00;95.40
32366;DHT22;18837;46.832;16.838;2022-11-15T10:57:38;10.00;94.50
32366;DHT22;18837;46.832;16.838;2022-11-15T11:06:59;10.10;95.20
32366;DHT22;18837;46.832;16.838;2022-11-15T11:12:31;10.20;94.80
32366;DHT22;18837;46.832;16.838;2022-11-15T11:15:01;10.20;94.90
32366;DHT22;18837;46.832;16.838;2022-11-15T12:17:50;10.30;94.90
32366;DHT22;18837;46.832;16.838;2022-11-15T12:23:17;10.20;94.20
32366;DHT22;18837;46.832;16.838;2022-11-15T12:59:55;10.40;94.90
32366;DHT22;18837;46.832;16.838;2022-11-15T14:45:35;10.20;95.50
32366;DHT22;18837;46.832;16.838;2022-11-15T14:51:12;10.30;95.40
32366;DHT22;18837;46.832;16.838;2022-11-15T14:53:48;10.40;94.20
32366;DHT22;18837;46.832;16.838;2022-11-15T14:56:14;10.20;94.80
32366;DHT22;18837;46.832;16.838;2022-11-15T14:58:45;10.40;94.10
32366;DHT22;18837;46.832;16.838;2022-11-15T15:01:32;10.10;94.20
32366;DHT22;18837;46.832;16.838;2022-11-15T15:10:37;10.30;95.50
32366;DHT22;18837;46.832;16.838;2022-11-15T15:13:16;10.30;94.30
32366;DHT22;18837;46.832;16.838;2022-11-15T15:15:52;10.20;95.00
32366;DHT22;18837;46.832;16.838;2022-11-15T15:18:20;10.20;94.40
32366;DHT22;18837;46.832;16.838;2022-11-15T15:25:59;10.20;94.70
32366;DHT22;18837;46.832;16.838;2022-11-15T15:28:26;10.20;94.30
32366;DHT22;18837;46.832;16.838;2022-11-15T15:30:52;10.10;94.10
32366;DHT22;18837;46.832;16.838;2022-11-15T15:33:18;10.10;94.40
32366;DHT22;18837;46.832;16.838;2022-11-15T15:35:44;10.10;94.40
32366;DHT22;18837;46.832;16.838;2022-11-15T15:41:57;10.00;95.30
32366;DHT22;18837;46.832;16.838;2022-11-15T15:44:22;10.30;95.60
32366;DHT22;18837;46.832;16.838;2022-11-15T15:46:48;10.30;94.20
32366;DHT22;18837;46.832;16.838;2022-11-15T15:49:14;10.30;94.40
32366;DHT22;18837;46.832;16.838;2022-11-15T15:51:40;10.40;94.30
32366;DHT22;18837;46.832;16.838;2022-11-15T15:54:21;10.30;94.30
32366;DHT22;18837;46.832;16.838;2022-11-15T15:57:31;10.30;93.90
32366;DHT22;18837;46.832;16.838;2022-11-15T16:00:00;10.30;95.00
32366;DHT22;18837;46.832;16.838;2022-11-15T16:02:26;10.20;94.30
32366;DHT22;18837;46.832;16.838;2022-11-15T16:04:55;10.20;94.60
32366;DHT22;18837;46.832;16.838;2022-11-15T16:07:22;10.20;94.30
32366;DHT22;18837;46.832;16.838;2022-11-15T16:09:54;10.20;94.30
32366;DHT22;18837;46.832;16.838;2022-11-15T16:16:18;10.10;95.20
32366;DHT22;18837;46.832;16.838;2022-11-15T16:18:49;10.10;95.20
32366;DHT22;18837;46.832;16.838;2022-11-15T16:21:14;10.10;94.20
32366;DHT22;18837;46.832;16.838;2022-11-15T16:23:41;10.10;94.40
32366;DHT22;18837;46.832;16.838;2022-11-15T16:26:27;10.10;94.50
32366;DHT22;18837;46.832;16.838;2022-11-15T16:28:53;10.00;95.20
32366;DHT22;18837;46.832;16.838;2022-11-15T16:31:41;10.10;94.20
32366;DHT22;18837;46.832;16.838;2022-11-15T16:34:08;10.10;95.40
32366;DHT22;18837;46.832;16.838;2022-11-15T16:36:35;10.10;94.40
32366;DHT22;18837;46.832;16.838;2022-11-15T16:39:01;10.10;94.60
32366;DHT22;18837;46.832;16.838;2022-11-15T16:41:30;10.20;94.40
32366;DHT22;18837;46.832;16.838;2022-11-15T16:43:56;10.20;94.40
32366;DHT22;18837;46.832;16.838;2022-11-15T16:46:56;10.30;94.30
32366;DHT22;18837;46.832;16.838;2022-11-15T16:52:44;10.20;95.50
32366;DHT22;18837;46.832;16.838;2022-11-15T16:55:10;10.20;94.50
32366;DHT22;18837;46.832;16.838;2022-11-15T16:57:35;10.20;94.80
32366;DHT22;18837;46.832;16.838;2022-11-15T17:00:02;10.20;94.50
32366;DHT22;18837;46.832;16.838;2022-11-15T17:02:28;10.10;94.70
32366;DHT22;18837;46.832;16.838;2022-11-15T17:04:54;10.10;94.80
32366;DHT22;18837;46.832;16.838;2022-11-15T17:07:48;10.10;94.60
32366;DHT22;18837;46.832;16.838;2022-11-15T17:10:15;10.10;95.60
32366;DHT22;18837;46.832;16.838;2022-11-15T17:12:41;10.10;94.70
32366;DHT22;18837;46.832;16.838;2022-11-15T17:15:08;10.10;95.00
32366;DHT22;18837;46.832;16.838;2022-11-15T17:17:35;10.10;95.20
32366;DHT22;18837;46.832;16.838;2022-11-15T17:20:01;10.10;94.70
32366;DHT22;18837;46.832;16.838;2022-11-15T17:26:13;10.10;95.70
32366;DHT22;18837;46.832;16.838;2022-11-15T17:28:40;10.10;94.80
32366;DHT22;18837;46.832;16.838;2022-11-15T17:31:10;10.10;94.80
32366;DHT22;18837;46.832;16.838;2022-11-15T17:33:37;10.20;94.70
32366;DHT22;18837;46.832;16.838;2022-11-15T17:36:05;10.20;94.70
32366;DHT22;18837;46.832;16.838;2022-11-15T17:38:32;10.30;94.90
32366;DHT22;18837;46.832;16.838;2022-11-15T17:41:16;10.30;94.60
32366;DHT22;18837;46.832;16.838;2022-11-15T17:43:42;10.30;94.70
32366;DHT22;18837;46.832;16.838;2022-11-15T17:46:12;10.20;94.50
32366;DHT22;18837;46.832;16.838;2022-11-15T17:48:38;10.20;94.50
32366;DHT22;18837;46.832;16.838;2022-11-15T17:51:07;10.20;94.60
32366;DHT22;18837;46.832;16.838;2022-11-15T17:53:39;10.20;94.60
32366;DHT22;18837;46.832;16.838;2022-11-15T17:59:32;10.10;95.40
32366;DHT22;18837;46.832;16.838;2022-11-15T18:01:58;10.10;95.40
32366;DHT22;18837;46.832;16.838;2022-11-15T18:04:24;10.10;94.70
32366;DHT22;18837;46.832;16.838;2022-11-15T18:06:53;10.10;95.10
32366;DHT22;18837;46.832;16.838;2022-11-15T18:09:19;10.10;94.60
32366;DHT22;18837;46.832;16.838;2022-11-15T18:11:46;10.10;94.50
32366;DHT22;18837;46.832;16.838;2022-11-15T18:14:34;10.10;94.70
32366;DHT22;18837;46.832;16.838;2022-11-15T18:17:00;10.10;94.80
32366;DHT22;18837;46.832;16.838;2022-11-15T18:19:25;10.10;94.80
32366;DHT22;18837;46.832;16.838;2022-11-15T18:21:51;10.10;94.70
32366;DHT22;18837;46.832;16.838;2022-11-15T18:24:33;10.10;95.10
32366;DHT22;18837;46.832;16.838;2022-11-15T18:27:00;10.10;94.80
32366;DHT22;18837;46.832;16.838;2022-11-15T18:29:26;10.20;94.70
32366;DHT22;18837;46.832;16.838;2022-11-15T18:35:33;10.20;95.50
32366;DHT22;18837;46.832;16.838;2022-11-15T18:37:59;10.20;94.80
32366;DHT22;18837;46.832;16.838;2022-11-15T18:40:25;10.20;94.60
32366;DHT22;18837;46.832;16.838;2022-11-15T18:42:52;10.20;94.40
32366;DHT22;18837;46.832;16.838;2022-11-15T18:53:27;10.10;95.20
32366;DHT22;18837;46.832;16.838;2022-11-15T18:56:05;10.10;94.40
32366;DHT22;18837;46.832;16.838;2022-11-15T19:03:47;10.10;95.40
32366;DHT22;18837;46.832;16.838;2022-11-15T19:09:55;10.10;96.20
32366;DHT22;18837;46.832;16.838;2022-11-15T19:12:24;10.10;96.00
32366;DHT22;18837;46.832;16.838;2022-11-15T19:14:50;10.00;94.50
32366;DHT22;18837;46.832;16.838;2022-11-15T19:17:15;10.10;94.80
32366;DHT22;18837;46.832;16.838;2022-11-15T19:19:41;10.10;94.60
32366;DHT22;18837;46.832;16.838;2022-11-15T19:22:09;10.10;94.70
32366;DHT22;18837;46.832;16.838;2022-11-15T19:27:53;10.20;96.20
32366;DHT22;18837;46.832;16.838;2022-11-15T19:30:18;10.20;94.60
32366;DHT22;18837;46.832;16.838;2022-11-15T19:32:44;10.10;94.80
32366;DHT22;18837;46.832;16.838;2022-11-15T19:35:17;10.20;95.20
32366;DHT22;18837;46.832;16.838;2022-11-15T19:37:43;10.20;94.50
32366;DHT22;18837;46.832;16.838;2022-11-15T19:52:14;10.10;95.30
32366;DHT22;18837;46.832;16.838;2022-11-15T19:54:51;10.10;95.90
32366;DHT22;18837;46.832;16.838;2022-11-15T19:57:34;10.00;94.30
32366;DHT22;18837;46.832;16.838;2022-11-15T20:00:15;10.10;94.00
32366;DHT22;18837;46.832;16.838;2022-11-15T20:02:41;10.10;95.00
32366;DHT22;18837;46.832;16.838;2022-11-15T20:05:07;10.10;94.70
32366;DHT22;18837;46.832;16.838;2022-11-15T20:07:33;9.80;94.10
32366;DHT22;18837;46.832;16.838;2022-11-15T20:10:03;10.00;94.20
32366;DHT22;18837;46.832;16.838;2022-11-15T20:12:32;10.50;94.10
32366;DHT22;18837;46.832;16.838;2022-11-15T20:32:16;10.20;95.50
32366;DHT22;18837;46.832;16.838;2022-11-15T20:35:01;10.20;94.60
32366;DHT22;18837;46.832;16.838;2022-11-15T20:37:26;10.20;94.60
32366;DHT22;18837;46.832;16.838;2022-11-15T20:39:52;10.10;94.50
32366;DHT22;18837;46.832;16.838;2022-11-15T20:42:18;10.10;94.60
32366;DHT22;18837;46.832;16.838;2022-11-15T20:44:49;10.10;94.40
32366;DHT22;18837;46.832;16.838;2022-11-15T20:47:15;10.00;94.50
32366;DHT22;18837;46.832;16.838;2022-11-15T20:50:15;10.10;94.90
32366;DHT22;18837;46.832;16.838;2022-11-15T20:53:08;10.10;95.90
32366;DHT22;18837;46.832;16.838;2022-11-15T20:55:45;10.10;95.80
32366;DHT22;18837;46.832;16.838;2022-11-15T20:58:23;10.10;95.60
32366;DHT22;18837;46.832;16.838;2022-11-15T21:00:54;10.10;94.70
32366;DHT22;18837;46.832;16.838;2022-11-15T21:03:20;10.10;94.70
32366;DHT22;18837;46.832;16.838;2022-11-15T21:05:46;10.10;94.80
32366;DHT22;18837;46.832;16.838;2022-11-15T21:08:31;10.10;94.50
32366;DHT22;18837;46.832;16.838;2022-11-15T21:11:17;10.10;94.70
32366;DHT22;18837;46.832;16.838;2022-11-15T21:14:02;10.20;94.80
32366;DHT22;18837;46.832;16.838;2022-11-15T21:16:28;10.20;94.70
32366;DHT22;18837;46.832;16.838;2022-11-15T21:18:53;10.30;94.60
32366;DHT22;18837;46.832;16.838;2022-11-15T21:21:19;10.30;94.60
32366;DHT22;18837;46.832;16.838;2022-11-15T21:37:10;10.20;95.80
32366;DHT22;18837;46.832;16.838;2022-11-15T21:39:36;10.20;95.10
32366;DHT22;18837;46.832;16.838;2022-11-15T21:42:26;10.10;94.60
32366;DHT22;18837;46.832;16.838;2022-11-15T21:44:52;10.10;95.50
32366;DHT22;18837;46.832;16.838;2022-11-15T21:47:18;10.10;94.70
32366;DHT22;18837;46.832;16.838;2022-11-15T21:49:44;10.10;94.80
32366;DHT22;18837;46.832;16.838;2022-11-15T21:52:10;10.10;94.70
32366;DHT22;18837;46.832;16.838;2022-11-15T21:54:35;10.10;94.50
32366;DHT22;18837;46.832;16.838;2022-11-15T22:04:02;10.10;95.90
32366;DHT22;18837;46.832;16.838;2022-11-15T22:06:32;10.10;94.90
32366;DHT22;18837;46.832;16.838;2022-11-15T22:09:03;10.20;95.40
32366;DHT22;18837;46.832;16.838;2022-11-15T22:11:29;10.20;94.80
32366;DHT22;18837;46.832;16.838;2022-11-15T22:14:00;10.30;94.60
32366;DHT22;18837;46.832;16.838;2022-11-15T22:16:59;10.30;94.70
32366;DHT22;18837;46.832;16.838;2022-11-15T22:19:28;10.30;95.50
32366;DHT22;18837;46.832;16.838;2022-11-15T22:24:40;10.20;95.10
32366;DHT22;18837;46.832;16.838;2022-11-15T22:27:16;10.20;94.50
32366;DHT22;18837;46.832;16.838;2022-11-15T22:29:44;10.20;94.50
32366;DHT22;18837;46.832;16.838;2022-11-15T22:38:48;10.20;96.00
32366;DHT22;18837;46.832;16.838;2022-11-15T22:41:19;10.10;94.60
32366;DHT22;18837;46.832;16.838;2022-11-15T22:43:45;10.10;94.50
32366;DHT22;18837;46.832;16.838;2022-11-15T22:46:40;10.10;94.70
32366;DHT22;18837;46.832;16.838;2022-11-15T22:49:22;9.90;95.40
32366;DHT22;18837;46.832;16.838;2022-11-15T22:54:57;10.10;95.90
32366;DHT22;18837;46.832;16.838;2022-11-15T22:57:44;10.10;94.40
32366;DHT22;18837;46.832;16.838;2022-11-15T23:00:16;10.20;94.60
32366;DHT22;18837;46.832;16.838;2022-11-15T23:02:52;10.20;94.70
32366;DHT22;18837;46.832;16.838;2022-11-15T23:05:24;10.20;94.80
32366;DHT22;18837;46.832;16.838;2022-11-15T23:14:34;10.30;95.80
32366;DHT22;18837;46.832;16.838;2022-11-15T23:17:03;10.30;94.40
32366;DHT22;18837;46.832;16.838;2022-11-15T23:19:29;10.20;94.60
32366;DHT22;18837;46.832;16.838;2022-11-15T23:21:54;10.20;94.60
32366;DHT22;18837;46.832;16.838;2022-11-15T23:24:38;10.20;95.00
32366;DHT22;18837;46.832;16.838;2022-11-15T23:27:45;10.20;94.50
32366;DHT22;18837;46.832;16.838;2022-11-15T23:30:15;10.20;95.90
32366;DHT22;18837;46.832;16.838;2022-11-15T23:33:00;10.20;94.80
32366;DHT22;18837;46.832;16.838;2022-11-15T23:35:53;10.10;95.00
32366;DHT22;18837;46.832;16.838;2022-11-15T23:38:18;10.20;94.80
32366;DHT22;18837;46.832;16.838;2022-11-15T23:47:28;10.10;95.80
32366;DHT22;18837;46.832;16.838;2022-11-15T23:49:54;10.10;94.50
32366;DHT22;18837;46.832;16.838;2022-11-15T23:52:20;10.10;94.80
32366;DHT22;18837;46.832;16.838;2022-11-15T23:54:48;10.10;94.70
32366;DHT22;18837;46.832;16.838;2022-11-15T23:57:14;10.20;94.60
32366;DHT22;18837;46.832;16.838;2022-11-15T23:59:41;10.30;94.90
